createdAt,value
2022-11-15T00:04:45.929Z,9.40
2022-11-15T00:10:58.442Z,9.40
2022-11-15T00:17:12.285Z,9.40
2022-11-15T00:23:23.875Z,9.30
2022-11-15T00:29:36.089Z,9.30
2022-11-15T00:35:49.190Z,9.10
2022-11-15T00:42:01.246Z,9.10
2022-11-15T00:48:12.726Z,9.20
2022-11-15T00:54:27.033Z,9.20
2022-11-15T01:00:39.168Z,9.30
2022-11-15T01:06:51.046Z,9.30
2022-11-15T01:13:07.771Z,9.30
2022-11-15T01:19:19.586Z,9.30
2022-11-15T01:25:31.453Z,9.30
2022-11-15T01:31:44.684Z,9.20
2022-11-15T01:37:56.317Z,9.00
2022-11-15T01:44:48.068Z,9.10
2022-11-15T01:51:03.192Z,9.20
2022-11-15T01:57:16.193Z,9.10
2022-11-15T02:03:36.814Z,9.20
2022-11-15T02:09:50.540Z,9.20
2022-11-15T02:16:09.307Z,9.20
2022-11-15T02:22:37.565Z,9.10
2022-11-15T02:29:01.318Z,9.00
2022-11-15T02:35:24.277Z,9.10
2022-11-15T02:41:44.223Z,9.10
2022-11-15T02:48:00.172Z,9.10
2022-11-15T02:54:17.701Z,9.10
2022-11-15T03:00:37.034Z,9.10
2022-11-15T03:06:55.271Z,9.10
2022-11-15T03:13:20.284Z,9.10
2022-11-15T03:19:39.456Z,9.10
2022-11-15T03:25:53.693Z,9.10
2022-11-15T03:32:18.117Z,9.00
2022-11-15T03:38:34.440Z,9.00
2022-11-15T03:44:52.905Z,9.00
2022-11-15T03:51:07.463Z,8.90
2022-11-15T03:57:19.614Z,8.90
2022-11-15T04:03:31.866Z,9.00
2022-11-15T04:10:03.555Z,9.00
2022-11-15T04:16:15.839Z,8.90
2022-11-15T04:22:41.769Z,8.90
2022-11-15T04:29:12.348Z,8.90
2022-11-15T04:35:24.544Z,8.90
2022-11-15T04:41:36.395Z,8.90
2022-11-15T04:47:49.750Z,8.90
2022-11-15T04:54:01.990Z,8.90
2022-11-15T05:00:16.469Z,8.90
2022-11-15T05:06:30.133Z,8.90
2022-11-15T05:12:42.241Z,8.90
2022-11-15T05:18:54.609Z,8.80
2022-11-15T05:25:09.282Z,8.90
2022-11-15T05:31:21.413Z,8.90
2022-11-15T05:37:33.307Z,8.80
2022-11-15T05:43:47.428Z,8.90
2022-11-15T05:50:03.392Z,8.90
2022-11-15T05:56:16.473Z,8.90
2022-11-15T06:02:29.820Z,8.80
2022-11-15T06:08:42.220Z,8.90
2022-11-15T06:14:54.097Z,8.90
2022-11-15T06:21:07.869Z,8.90
2022-11-15T06:27:19.796Z,8.90
2022-11-15T06:33:31.913Z,8.90
2022-11-15T06:39:45.473Z,8.90
2022-11-15T06:45:57.719Z,9.00
2022-11-15T06:52:09.803Z,8.80
2022-11-15T06:58:23.716Z,8.90
2022-11-15T07:04:37.523Z,8.90
2022-11-15T07:10:49.895Z,8.90
2022-11-15T07:17:07.966Z,8.90
2022-11-15T07:23:19.957Z,8.90
2022-11-15T07:29:31.868Z,8.90
2022-11-15T07:35:47.784Z,9.00
2022-11-15T07:42:13.872Z,8.90
2022-11-15T07:48:26.110Z,9.00
2022-11-15T07:54:42.953Z,9.00
2022-11-15T08:00:55.163Z,9.00
2022-11-15T08:07:07.212Z,9.00
2022-11-15T08:13:20.836Z,9.00
2022-11-15T08:19:32.611Z,9.00
2022-11-15T08:25:45.105Z,9.00
2022-11-15T08:31:58.810Z,9.10
2022-11-15T08:38:10.746Z,9.10
2022-11-15T08:44:23.061Z,9.10
2022-11-15T08:50:36.971Z,9.10
2022-11-15T08:56:49.245Z,9.10
2022-11-15T09:03:01.688Z,9.10
2022-11-15T09:09:14.812Z,9.10
2022-11-15T09:15:27.034Z,9.20
2022-11-15T09:21:40.014Z,9.20
2022-11-15T09:27:53.386Z,9.30
2022-11-15T09:34:05.474Z,9.40
2022-11-15T09:40:20.639Z,9.70
2022-11-15T09:46:45.184Z,9.70
2022-11-15T09:53:01.804Z,9.80
2022-11-15T09:59:09.251Z,9.80
2022-11-15T10:05:04.854Z,9.90
2022-11-15T10:11:30.481Z,10.00
2022-11-15T10:17:41.995Z,10.10
2022-11-15T10:23:36.856Z,10.10
2022-11-15T10:29:29.849Z,10.10
2022-11-15T10:35:26.747Z,10.20
2022-11-15T10:41:24.298Z,10.20
2022-11-15T10:47:36.086Z,10.10
2022-11-15T10:53:35.948Z,10.20
2022-11-15T10:59:38.781Z,10.30
2022-11-15T11:05:39.858Z,10.40
2022-11-15T11:11:47.601Z,10.40
2022-11-15T11:17:59.718Z,10.40
2022-11-15T11:23:56.718Z,10.50
2022-11-15T11:30:04.409Z,10.50
2022-11-15T11:36:07.549Z,10.50
2022-11-15T11:42:12.894Z,10.60
2022-11-15T11:48:14.772Z,10.60
2022-11-15T11:54:16.171Z,10.60
2022-11-15T12:00:20.318Z,10.60
2022-11-15T12:06:26.153Z,10.60
2022-11-15T12:12:30.103Z,10.60
2022-11-15T12:18:23.528Z,10.80
2022-11-15T12:24:22.483Z,10.70
2022-11-15T12:30:19.512Z,10.70
2022-11-15T12:36:14.865Z,10.80
2022-11-15T12:42:44.737Z,10.80
2022-11-15T12:49:04.439Z,10.90
2022-11-15T12:55:25.619Z,11.00
2022-11-15T13:01:56.425Z,11.10
2022-11-15T13:08:01.084Z,11.20
2022-11-15T13:13:55.067Z,11.30
2022-11-15T13:19:49.992Z,11.30
2022-11-15T13:26:15.378Z,11.40
2022-11-15T13:32:14.573Z,11.50
2022-11-15T13:38:08.369Z,11.50
2022-11-15T13:44:05.361Z,11.50
2022-11-15T13:49:59.844Z,11.60
2022-11-15T13:55:56.666Z,11.70
2022-11-15T14:01:52.979Z,11.70
2022-11-15T14:07:55.788Z,11.70
2022-11-15T14:14:07.629Z,11.80
2022-11-15T14:20:02.777Z,11.80
2022-11-15T14:25:57.059Z,12.00
2022-11-15T14:31:50.502Z,12.10
2022-11-15T14:37:46.016Z,12.10
2022-11-15T14:43:39.484Z,12.20
2022-11-15T14:49:32.485Z,12.20
2022-11-15T14:55:29.962Z,12.30
2022-11-15T15:01:26.299Z,12.30
2022-11-15T15:07:20.276Z,12.20
2022-11-15T15:13:19.990Z,12.10
2022-11-15T15:19:13.422Z,12.10
2022-11-15T15:25:22.025Z,12.00
2022-11-15T15:31:17.238Z,11.90
2022-11-15T15:37:21.360Z,11.80
2022-11-15T15:43:14.861Z,11.80
2022-11-15T15:49:12.047Z,11.70
2022-11-15T15:55:05.960Z,11.60
2022-11-15T16:01:00.587Z,11.60
2022-11-15T16:06:59.874Z,11.60
2022-11-15T16:12:54.208Z,11.60
2022-11-15T16:18:47.673Z,11.50
2022-11-15T16:24:42.157Z,11.50
2022-11-15T16:30:35.411Z,11.50
2022-11-15T16:36:31.340Z,11.40
2022-11-15T16:42:26.146Z,11.40
2022-11-15T16:48:25.132Z,11.40
2022-11-15T16:54:18.272Z,11.50
2022-11-15T17:00:16.573Z,11.40
2022-11-15T17:06:11.780Z,11.40
2022-11-15T17:12:05.520Z,11.40
2022-11-15T17:18:01.048Z,11.40
2022-11-15T17:23:54.492Z,11.40
2022-11-15T17:29:47.932Z,11.40
2022-11-15T17:35:42.745Z,11.40
2022-11-15T17:41:36.228Z,11.40
2022-11-15T17:47:29.684Z,11.40
2022-11-15T17:53:24.161Z,11.30
2022-11-15T17:59:21.397Z,11.30
2022-11-15T18:05:14.849Z,11.30
2022-11-15T18:11:12.252Z,11.30
2022-11-15T18:17:05.687Z,11.30
2022-11-15T18:22:59.104Z,11.30
2022-11-15T18:28:55.256Z,11.30
2022-11-15T18:34:48.305Z,11.30
2022-11-15T18:40:41.769Z,11.40
2022-11-15T18:46:36.146Z,11.40
2022-11-15T18:52:29.821Z,11.40
2022-11-15T18:58:23.202Z,11.30
2022-11-15T19:04:19.901Z,11.30
2022-11-15T19:10:13.616Z,11.30
2022-11-15T19:16:08.542Z,11.30
2022-11-15T19:22:04.104Z,11.30
2022-11-15T19:27:57.501Z,11.30
2022-11-15T19:33:51.152Z,11.30
2022-11-15T19:39:45.935Z,11.30
2022-11-15T19:45:39.360Z,11.30
2022-11-15T19:51:32.844Z,11.30
2022-11-15T19:57:27.605Z,11.20
2022-11-15T20:03:20.992Z,11.30
2022-11-15T20:09:16.338Z,11.20
2022-11-15T20:15:12.007Z,11.20
2022-11-15T20:21:06.729Z,11.30
2022-11-15T20:27:00.129Z,11.30
2022-11-15T20:32:54.896Z,11.30
2022-11-15T20:38:48.288Z,11.20
2022-11-15T20:44:41.783Z,11.30
2022-11-15T20:50:42.720Z,11.30
2022-11-15T20:56:36.808Z,11.30
2022-11-15T21:02:29.983Z,11.20
2022-11-15T21:08:24.900Z,11.20
2022-11-15T21:14:18.007Z,11.20
2022-11-15T21:20:12.236Z,11.20
2022-11-15T21:26:08.083Z,11.10
2022-11-15T21:32:06.591Z,11.20
2022-11-15T21:38:00.151Z,11.20
2022-11-15T21:43:58.938Z,11.20
2022-11-15T21:49:52.385Z,11.20
2022-11-15T21:55:45.881Z,11.20
2022-11-15T22:01:58.042Z,11.10
2022-11-15T22:07:51.688Z,11.10
2022-11-15T22:13:45.091Z,11.20
2022-11-15T22:19:51.936Z,11.20
2022-11-15T22:25:45.945Z,11.20
2022-11-15T22:31:39.434Z,11.20
2022-11-15T22:37:34.303Z,11.10
2022-11-15T22:43:28.745Z,11.10
2022-11-15T22:49:22.205Z,11.10
2022-11-15T22:55:17.882Z,11.10
2022-11-15T23:01:21.661Z,11.10
2022-11-15T23:07:15.361Z,11.10
2022-11-15T23:13:20.139Z,11.10
2022-11-15T23:19:13.790Z,11.10
2022-11-15T23:25:07.715Z,11.00
2022-11-15T23:31:23.333Z,10.90
2022-11-15T23:37:17.546Z,10.90
2022-11-15T23:43:11.052Z,10.80
2022-11-15T23:49:06.198Z,10.80
2022-11-15T23:54:59.837Z,10.80
